sensor_id;sensor_type;location;lat;lon;timestamp;pressure;altitude;pressure_sealevel;temperature;humidity
35551;BME280;21655;46.056;13.616;2022-07-23T00:01:33;100359.13;;;24.31;68.52
35551;BME280;21655;46.056;13.616;2022-07-23T00:03:58;100363.16;;;24.09;70.39
35551;BME280;21655;46.056;13.616;2022-07-23T00:06:24;100361.44;;;24.08;70.49
35551;BME280;21655;46.056;13.616;2022-07-23T00:08:50;100364.78;;;24.31;69.80
35551;BME280;21655;46.056;13.616;2022-07-23T00:11:16;100362.63;;;24.43;69.73
35551;BME280;21655;46.056;13.616;2022-07-23T00:13:42;100362.09;;;24.20;69.76
35551;BME280;21655;46.056;13.616;2022-07-23T00:16:07;100364.53;;;24.06;70.26
35551;BME280;21655;46.056;13.616;2022-07-23T00:18:33;100369.72;;;23.88;70.97
35551;BME280;21655;46.056;13.616;2022-07-23T00:20:59;100353.53;;;23.62;71.92
35551;BME280;21655;46.056;13.616;2022-07-23T00:23:24;100357.69;;;23.54;72.80
35551;BME280;21655;46.056;13.616;2022-07-23T00:25:51;100362.13;;;23.72;72.91
35551;BME280;21655;46.056;13.616;2022-07-23T00:28:17;100362.19;;;23.98;71.64
35551;BME280;21655;46.056;13.616;2022-07-23T00:30:43;100353.16;;;24.01;71.30
35551;BME280;21655;46.056;13.616;2022-07-23T00:33:09;100348.50;;;23.90;71.56
35551;BME280;21655;46.056;13.616;2022-07-23T00:35:36;100359.56;;;23.70;72.29
35551;BME280;21655;46.056;13.616;2022-07-23T00:38:04;100356.50;;;23.50;73.26
35551;BME280;21655;46.056;13.616;2022-07-23T00:40:30;100355.78;;;23.38;73.87
35551;BME280;21655;46.056;13.616;2022-07-23T00:42:56;100352.22;;;23.48;74.20
35551;BME280;21655;46.056;13.616;2022-07-23T00:45:22;100361.09;;;23.56;74.03
35551;BME280;21655;46.056;13.616;2022-07-23T00:47:48;100354.47;;;23.46;74.09
35551;BME280;21655;46.056;13.616;2022-07-23T00:50:14;100359.13;;;23.35;74.23
35551;BME280;21655;46.056;13.616;2022-07-23T00:52:40;100352.94;;;23.17;75.86
35551;BME280;21655;46.056;13.616;2022-07-23T00:55:07;100350.69;;;23.19;75.43
35551;BME280;21655;46.056;13.616;2022-07-23T00:57:33;100351.91;;;23.23;75.25
35551;BME280;21655;46.056;13.616;2022-07-23T00:59:59;100346.09;;;23.34;74.85
35551;BME280;21655;46.056;13.616;2022-07-23T01:02:25;100340.75;;;23.38;75.07
35551;BME280;21655;46.056;13.616;2022-07-23T01:04:51;100339.31;;;23.35;75.57
35551;BME280;21655;46.056;13.616;2022-07-23T01:07:17;100336.22;;;23.37;75.73
35551;BME280;21655;46.056;13.616;2022-07-23T01:09:44;100334.78;;;23.13;75.54
35551;BME280;21655;46.056;13.616;2022-07-23T01:12:10;100331.22;;;23.06;75.19
35551;BME280;21655;46.056;13.616;2022-07-23T01:14:35;100336.72;;;23.12;75.49
35551;BME280;21655;46.056;13.616;2022-07-23T01:17:01;100332.28;;;23.00;76.25
35551;BME280;21655;46.056;13.616;2022-07-23T01:19:27;100328.53;;;22.95;75.57
35551;BME280;21655;46.056;13.616;2022-07-23T01:21:53;100322.22;;;22.88;76.69
35551;BME280;21655;46.056;13.616;2022-07-23T01:24:19;100327.13;;;22.76;75.55
35551;BME280;21655;46.056;13.616;2022-07-23T01:26:46;100321.13;;;22.72;75.60
35551;BME280;21655;46.056;13.616;2022-07-23T01:29:12;100317.38;;;22.67;75.84
35551;BME280;21655;46.056;13.616;2022-07-23T01:31:38;100313.25;;;22.74;77.28
35551;BME280;21655;46.056;13.616;2022-07-23T01:34:03;100320.03;;;22.95;76.24
35551;BME280;21655;46.056;13.616;2022-07-23T01:36:30;100317.72;;;23.08;75.24
35551;BME280;21655;46.056;13.616;2022-07-23T01:38:55;100303.25;;;22.88;75.86
35551;BME280;21655;46.056;13.616;2022-07-23T01:41:21;100311.25;;;22.91;76.08
35551;BME280;21655;46.056;13.616;2022-07-23T01:43:47;100309.59;;;22.95;75.90
35551;BME280;21655;46.056;13.616;2022-07-23T01:46:12;100305.78;;;22.85;76.12
35551;BME280;21655;46.056;13.616;2022-07-23T01:48:38;100298.72;;;22.87;75.93
35551;BME280;21655;46.056;13.616;2022-07-23T01:51:03;100309.38;;;22.80;74.90
35551;BME280;21655;46.056;13.616;2022-07-23T01:53:29;100313.88;;;22.60;76.01
35551;BME280;21655;46.056;13.616;2022-07-23T01:55:57;100313.50;;;22.73;75.92
35551;BME280;21655;46.056;13.616;2022-07-23T01:58:22;100311.81;;;22.55;76.00
35551;BME280;21655;46.056;13.616;2022-07-23T02:00:47;100314.22;;;22.47;76.72
35551;BME280;21655;46.056;13.616;2022-07-23T02:03:13;100316.72;;;22.43;77.29
35551;BME280;21655;46.056;13.616;2022-07-23T02:05:38;100309.50;;;22.36;77.77
35551;BME280;21655;46.056;13.616;2022-07-23T02:08:04;100315.16;;;22.36;77.58
35551;BME280;21655;46.056;13.616;2022-07-23T02:10:30;100318.50;;;22.33;77.39
35551;BME280;21655;46.056;13.616;2022-07-23T02:12:55;100315.16;;;22.36;78.54
35551;BME280;21655;46.056;13.616;2022-07-23T02:15:21;100316.22;;;22.46;77.30
35551;BME280;21655;46.056;13.616;2022-07-23T02:17:46;100306.50;;;22.59;77.02
35551;BME280;21655;46.056;13.616;2022-07-23T02:20:12;100294.94;;;22.60;76.15
35551;BME280;21655;46.056;13.616;2022-07-23T02:22:38;100307.28;;;22.38;77.57
35551;BME280;21655;46.056;13.616;2022-07-23T02:25:04;100306.53;;;22.42;77.70
35551;BME280;21655;46.056;13.616;2022-07-23T02:27:30;100303.59;;;22.54;76.72
35551;BME280;21655;46.056;13.616;2022-07-23T02:29:56;100295.97;;;22.54;76.73
35551;BME280;21655;46.056;13.616;2022-07-23T02:32:22;100305.03;;;22.56;77.06
35551;BME280;21655;46.056;13.616;2022-07-23T02:34:48;100299.06;;;22.53;76.74
35551;BME280;21655;46.056;13.616;2022-07-23T02:37:13;100301.56;;;22.49;77.25
35551;BME280;21655;46.056;13.616;2022-07-23T02:39:39;100298.63;;;22.28;78.21
35551;BME280;21655;46.056;13.616;2022-07-23T02:42:04;100300.00;;;22.25;78.46
35551;BME280;21655;46.056;13.616;2022-07-23T02:44:30;100308.97;;;22.22;78.74
35551;BME280;21655;46.056;13.616;2022-07-23T02:46:55;100313.16;;;22.03;79.55
35551;BME280;21655;46.056;13.616;2022-07-23T02:49:21;100319.84;;;21.97;80.46
35551;BME280;21655;46.056;13.616;2022-07-23T02:51:46;100321.41;;;22.05;79.69
35551;BME280;21655;46.056;13.616;2022-07-23T02:54:11;100319.78;;;22.09;77.91
35551;BME280;21655;46.056;13.616;2022-07-23T02:56:37;100318.56;;;22.05;77.58
35551;BME280;21655;46.056;13.616;2022-07-23T02:59:02;100329.94;;;21.93;78.59
35551;BME280;21655;46.056;13.616;2022-07-23T03:01:28;100327.13;;;21.93;78.89
35551;BME280;21655;46.056;13.616;2022-07-23T03:03:53;100332.09;;;22.03;78.87
35551;BME280;21655;46.056;13.616;2022-07-23T03:06:18;100329.78;;;22.00;79.02
35551;BME280;21655;46.056;13.616;2022-07-23T03:08:44;100334.13;;;22.07;79.29
35551;BME280;21655;46.056;13.616;2022-07-23T03:11:09;100338.25;;;22.16;78.58
35551;BME280;21655;46.056;13.616;2022-07-23T03:13:39;100338.84;;;22.18;78.25
35551;BME280;21655;46.056;13.616;2022-07-23T03:16:05;100344.34;;;22.25;77.47
35551;BME280;21655;46.056;13.616;2022-07-23T03:18:30;100343.69;;;22.18;77.01
35551;BME280;21655;46.056;13.616;2022-07-23T03:20:56;100348.00;;;21.92;78.60
35551;BME280;21655;46.056;13.616;2022-07-23T03:23:21;100349.75;;;21.82;79.43
35551;BME280;21655;46.056;13.616;2022-07-23T03:25:47;100364.44;;;21.67;80.24
35551;BME280;21655;46.056;13.616;2022-07-23T03:28:16;100358.72;;;21.62;81.06
35551;BME280;21655;46.056;13.616;2022-07-23T03:30:43;100359.66;;;21.68;81.43
35551;BME280;21655;46.056;13.616;2022-07-23T03:33:10;100352.75;;;21.75;81.45
35551;BME280;21655;46.056;13.616;2022-07-23T03:35:35;100365.19;;;21.63;81.67
35551;BME280;21655;46.056;13.616;2022-07-23T03:38:01;100357.09;;;21.55;82.07
35551;BME280;21655;46.056;13.616;2022-07-23T03:40:26;100359.34;;;21.53;83.43
35551;BME280;21655;46.056;13.616;2022-07-23T03:42:52;100358.19;;;21.65;81.62
35551;BME280;21655;46.056;13.616;2022-07-23T03:45:17;100356.97;;;21.61;81.44
35551;BME280;21655;46.056;13.616;2022-07-23T03:47:43;100369.06;;;21.73;80.78
35551;BME280;21655;46.056;13.616;2022-07-23T03:50:09;100358.50;;;21.80;80.44
35551;BME280;21655;46.056;13.616;2022-07-23T03:52:35;100355.22;;;21.72;80.88
35551;BME280;21655;46.056;13.616;2022-07-23T03:55:01;100354.34;;;21.71;80.96
35551;BME280;21655;46.056;13.616;2022-07-23T03:57:27;100359.25;;;21.76;78.84
35551;BME280;21655;46.056;13.616;2022-07-23T03:59:52;100344.31;;;21.64;80.22
35551;BME280;21655;46.056;13.616;2022-07-23T04:02:18;100347.28;;;21.69;80.36
35551;BME280;21655;46.056;13.616;2022-07-23T04:04:43;100346.59;;;21.78;80.61
35551;BME280;21655;46.056;13.616;2022-07-23T04:07:09;100346.25;;;21.75;80.10
35551;BME280;21655;46.056;13.616;2022-07-23T04:09:34;100350.72;;;21.87;80.23
35551;BME280;21655;46.056;13.616;2022-07-23T04:12:00;100348.16;;;21.86;80.26
35551;BME280;21655;46.056;13.616;2022-07-23T04:14:26;100337.81;;;21.91;79.41
35551;BME280;21655;46.056;13.616;2022-07-23T04:16:51;100337.75;;;22.03;78.79
35551;BME280;21655;46.056;13.616;2022-07-23T04:19:17;100344.59;;;22.07;78.88
35551;BME280;21655;46.056;13.616;2022-07-23T04:21:42;100351.28;;;22.17;77.70
35551;BME280;21655;46.056;13.616;2022-07-23T04:24:07;100341.88;;;22.28;77.74
35551;BME280;21655;46.056;13.616;2022-07-23T04:26:33;100340.47;;;22.31;76.47
35551;BME280;21655;46.056;13.616;2022-07-23T04:28:58;100351.03;;;22.19;77.47
35551;BME280;21655;46.056;13.616;2022-07-23T04:31:24;100349.75;;;22.26;78.67
35551;BME280;21655;46.056;13.616;2022-07-23T04:33:49;100345.59;;;22.45;78.30
35551;BME280;21655;46.056;13.616;2022-07-23T04:36:15;100340.53;;;22.47;76.76
35551;BME280;21655;46.056;13.616;2022-07-23T04:38:40;100347.66;;;22.50;77.25
35551;BME280;21655;46.056;13.616;2022-07-23T04:41:05;100343.09;;;22.65;78.19
35551;BME280;21655;46.056;13.616;2022-07-23T04:43:31;100344.63;;;22.73;77.38
35551;BME280;21655;46.056;13.616;2022-07-23T04:45:56;100337.25;;;22.72;77.19
35551;BME280;21655;46.056;13.616;2022-07-23T04:48:22;100336.25;;;22.61;76.93
35551;BME280;21655;46.056;13.616;2022-07-23T04:50:47;100331.78;;;22.65;76.98
35551;BME280;21655;46.056;13.616;2022-07-23T04:53:13;100334.50;;;22.77;77.54
35551;BME280;21655;46.056;13.616;2022-07-23T04:55:38;100330.88;;;22.81;77.04
35551;BME280;21655;46.056;13.616;2022-07-23T04:58:04;100335.41;;;22.82;76.58
35551;BME280;21655;46.056;13.616;2022-07-23T05:00:29;100329.19;;;22.80;75.50
35551;BME280;21655;46.056;13.616;2022-07-23T05:02:54;100323.88;;;22.84;76.79
35551;BME280;21655;46.056;13.616;2022-07-23T05:05:20;100327.22;;;23.18;75.00
35551;BME280;21655;46.056;13.616;2022-07-23T05:07:45;100332.06;;;23.44;73.80
35551;BME280;21655;46.056;13.616;2022-07-23T05:10:11;100326.31;;;23.82;70.20
35551;BME280;21655;46.056;13.616;2022-07-23T05:12:36;100322.59;;;24.08;69.71
35551;BME280;21655;46.056;13.616;2022-07-23T05:15:02;100321.91;;;24.23;69.40
35551;BME280;21655;46.056;13.616;2022-07-23T05:17:27;100320.22;;;24.58;67.18
35551;BME280;21655;46.056;13.616;2022-07-23T05:19:53;100322.44;;;24.88;64.87
35551;BME280;21655;46.056;13.616;2022-07-23T05:22:18;100319.41;;;24.99;65.34
35551;BME280;21655;46.056;13.616;2022-07-23T05:24:43;100310.19;;;25.28;62.86
35551;BME280;21655;46.056;13.616;2022-07-23T05:27:09;100319.53;;;25.24;62.17
35551;BME280;21655;46.056;13.616;2022-07-23T05:29:34;100319.06;;;25.42;61.58
35551;BME280;21655;46.056;13.616;2022-07-23T05:32:00;100316.88;;;25.69;60.44
35551;BME280;21655;46.056;13.616;2022-07-23T05:34:25;100313.19;;;25.68;60.43
35551;BME280;21655;46.056;13.616;2022-07-23T05:36:51;100314.13;;;25.89;59.38
35551;BME280;21655;46.056;13.616;2022-07-23T05:39:16;100313.88;;;26.15;58.88
35551;BME280;21655;46.056;13.616;2022-07-23T05:41:41;100319.56;;;26.45;57.04
35551;BME280;21655;46.056;13.616;2022-07-23T05:44:08;100308.47;;;26.74;56.59
35551;BME280;21655;46.056;13.616;2022-07-23T05:46:33;100315.59;;;26.66;55.97
35551;BME280;21655;46.056;13.616;2022-07-23T05:48:59;100311.88;;;26.76;54.86
35551;BME280;21655;46.056;13.616;2022-07-23T05:51:25;100315.78;;;27.24;54.07
35551;BME280;21655;46.056;13.616;2022-07-23T05:53:51;100324.03;;;27.31;52.78
35551;BME280;21655;46.056;13.616;2022-07-23T05:56:17;100317.28;;;27.70;51.90
35551;BME280;21655;46.056;13.616;2022-07-23T05:58:43;100310.41;;;27.86;51.32
35551;BME280;21655;46.056;13.616;2022-07-23T06:01:09;100313.13;;;28.45;50.27
35551;BME280;21655;46.056;13.616;2022-07-23T06:03:35;100321.28;;;28.61;48.57
35551;BME280;21655;46.056;13.616;2022-07-23T06:06:00;100318.78;;;28.55;48.88
35551;BME280;21655;46.056;13.616;2022-07-23T06:08:26;100328.22;;;29.12;47.89
35551;BME280;21655;46.056;13.616;2022-07-23T06:10:51;100334.03;;;29.54;46.56
35551;BME280;21655;46.056;13.616;2022-07-23T06:13:17;100325.22;;;29.45;46.60
35551;BME280;21655;46.056;13.616;2022-07-23T06:15:43;100328.91;;;29.74;46.21
35551;BME280;21655;46.056;13.616;2022-07-23T06:18:09;100332.19;;;30.05;45.57
35551;BME280;21655;46.056;13.616;2022-07-23T06:20:34;100317.75;;;30.33;44.76
35551;BME280;21655;46.056;13.616;2022-07-23T06:23:00;100331.38;;;30.04;44.90
35551;BME280;21655;46.056;13.616;2022-07-23T06:25:25;100331.25;;;30.46;43.89
35551;BME280;21655;46.056;13.616;2022-07-23T06:27:51;100334.72;;;30.80;43.05
35551;BME280;21655;46.056;13.616;2022-07-23T06:30:16;100339.97;;;30.60;43.44
35551;BME280;21655;46.056;13.616;2022-07-23T06:32:43;100338.81;;;30.56;43.10
35551;BME280;21655;46.056;13.616;2022-07-23T06:35:09;100340.28;;;30.90;42.39
35551;BME280;21655;46.056;13.616;2022-07-23T06:37:34;100337.09;;;31.24;42.53
35551;BME280;21655;46.056;13.616;2022-07-23T06:39:59;100336.09;;;31.73;42.01
35551;BME280;21655;46.056;13.616;2022-07-23T06:42:25;100340.06;;;32.26;40.85
35551;BME280;21655;46.056;13.616;2022-07-23T06:44:50;100335.94;;;32.76;38.86
35551;BME280;21655;46.056;13.616;2022-07-23T06:47:16;100348.66;;;33.06;38.31
35551;BME280;21655;46.056;13.616;2022-07-23T06:49:41;100343.31;;;33.13;37.72
35551;BME280;21655;46.056;13.616;2022-07-23T06:52:07;100355.78;;;33.30;37.55
35551;BME280;21655;46.056;13.616;2022-07-23T06:54:33;100341.31;;;33.52;37.37
35551;BME280;21655;46.056;13.616;2022-07-23T06:56:58;100343.22;;;33.56;37.19
35551;BME280;21655;46.056;13.616;2022-07-23T06:59:24;100337.22;;;34.31;35.86
35551;BME280;21655;46.056;13.616;2022-07-23T07:01:49;100338.41;;;34.30;35.96
35551;BME280;21655;46.056;13.616;2022-07-23T07:04:15;100337.41;;;34.51;35.53
35551;BME280;21655;46.056;13.616;2022-07-23T07:06:40;100331.97;;;34.41;34.78
35551;BME280;21655;46.056;13.616;2022-07-23T07:09:06;100336.38;;;34.30;35.41
35551;BME280;21655;46.056;13.616;2022-07-23T07:11:31;100337.06;;;33.80;36.97
35551;BME280;21655;46.056;13.616;2022-07-23T07:13:57;100330.03;;;33.64;36.50
35551;BME280;21655;46.056;13.616;2022-07-23T07:16:22;100328.69;;;33.61;36.48
35551;BME280;21655;46.056;13.616;2022-07-23T07:18:47;100338.22;;;33.70;36.50
35551;BME280;21655;46.056;13.616;2022-07-23T07:21:13;100331.34;;;33.88;36.35
35551;BME280;21655;46.056;13.616;2022-07-23T07:23:38;100313.78;;;34.15;36.19
35551;BME280;21655;46.056;13.616;2022-07-23T07:26:04;100318.41;;;34.33;36.00
35551;BME280;21655;46.056;13.616;2022-07-23T07:28:29;100311.50;;;34.68;34.62
35551;BME280;21655;46.056;13.616;2022-07-23T07:30:55;100310.75;;;34.97;34.18
35551;BME280;21655;46.056;13.616;2022-07-23T07:33:20;100320.53;;;35.30;33.13
35551;BME280;21655;46.056;13.616;2022-07-23T07:35:46;100317.38;;;34.97;33.52
35551;BME280;21655;46.056;13.616;2022-07-23T07:38:12;100318.19;;;35.15;33.36
35551;BME280;21655;46.056;13.616;2022-07-23T07:40:37;100325.69;;;34.56;35.05
35551;BME280;21655;46.056;13.616;2022-07-23T07:43:03;100325.81;;;35.28;33.63
35551;BME280;21655;46.056;13.616;2022-07-23T07:45:28;100317.97;;;35.45;33.46
35551;BME280;21655;46.056;13.616;2022-07-23T07:47:54;100315.03;;;35.62;33.57
35551;BME280;21655;46.056;13.616;2022-07-23T07:50:20;100309.75;;;36.22;32.01
35551;BME280;21655;46.056;13.616;2022-07-23T07:52:46;100313.59;;;36.75;32.20
35551;BME280;21655;46.056;13.616;2022-07-23T07:55:12;100321.13;;;36.68;31.81
35551;BME280;21655;46.056;13.616;2022-07-23T07:57:38;100319.72;;;37.27;31.35
35551;BME280;21655;46.056;13.616;2022-07-23T08:00:05;100317.44;;;37.32;30.90
35551;BME280;21655;46.056;13.616;2022-07-23T08:02:49;100327.00;;;37.45;30.61
35551;BME280;21655;46.056;13.616;2022-07-23T08:05:22;100316.69;;;38.39;29.54
35551;BME280;21655;46.056;13.616;2022-07-23T08:07:48;100317.84;;;39.17;27.76
35551;BME280;21655;46.056;13.616;2022-07-23T08:10:14;100312.78;;;39.14;28.09
35551;BME280;21655;46.056;13.616;2022-07-23T08:15:10;100313.81;;;37.35;29.99
35551;BME280;21655;46.056;13.616;2022-07-23T08:17:36;100315.19;;;36.23;31.21
35551;BME280;21655;46.056;13.616;2022-07-23T08:20:06;100310.41;;;36.48;31.53
35551;BME280;21655;46.056;13.616;2022-07-23T08:23:04;100308.94;;;37.83;29.80
35551;BME280;21655;46.056;13.616;2022-07-23T08:25:33;100310.91;;;38.39;29.36
35551;BME280;21655;46.056;13.616;2022-07-23T08:28:00;100301.94;;;38.84;27.89
35551;BME280;21655;46.056;13.616;2022-07-23T08:30:26;100300.88;;;38.76;27.80
35551;BME280;21655;46.056;13.616;2022-07-23T08:33:03;100296.38;;;39.49;26.62
35551;BME280;21655;46.056;13.616;2022-07-23T08:37:55;100288.59;;;40.30;26.17
35551;BME280;21655;46.056;13.616;2022-07-23T08:40:21;100288.91;;;40.98;25.20
35551;BME280;21655;46.056;13.616;2022-07-23T08:42:50;100281.34;;;41.16;24.36
35551;BME280;21655;46.056;13.616;2022-07-23T08:45:20;100287.94;;;41.32;24.42
35551;BME280;21655;46.056;13.616;2022-07-23T08:47:49;100275.56;;;40.78;24.62
35551;BME280;21655;46.056;13.616;2022-07-23T08:50:15;100281.78;;;40.42;24.92
35551;BME280;21655;46.056;13.616;2022-07-23T08:52:40;100273.91;;;39.46;26.19
35551;BME280;21655;46.056;13.616;2022-07-23T08:55:07;100273.47;;;39.75;25.09
35551;BME280;21655;46.056;13.616;2022-07-23T08:57:33;100269.34;;;39.18;25.64
35551;BME280;21655;46.056;13.616;2022-07-23T08:59:58;100270.91;;;38.72;26.16
35551;BME280;21655;46.056;13.616;2022-07-23T09:02:24;100266.41;;;39.45;25.65
35551;BME280;21655;46.056;13.616;2022-07-23T09:04:49;100259.66;;;40.91;24.27
35551;BME280;21655;46.056;13.616;2022-07-23T09:07:15;100262.66;;;41.36;23.66
35551;BME280;21655;46.056;13.616;2022-07-23T09:09:40;100256.28;;;41.72;22.83
35551;BME280;21655;46.056;13.616;2022-07-23T09:12:08;100257.63;;;42.04;22.28
35551;BME280;21655;46.056;13.616;2022-07-23T09:14:43;100264.78;;;42.91;21.94
35551;BME280;21655;46.056;13.616;2022-07-23T09:17:13;100251.75;;;43.98;21.19
35551;BME280;21655;46.056;13.616;2022-07-23T09:19:40;100253.44;;;44.52;20.08
35551;BME280;21655;46.056;13.616;2022-07-23T09:22:25;100251.28;;;43.92;18.51
35551;BME280;21655;46.056;13.616;2022-07-23T09:25:14;100253.97;;;42.62;19.20
35551;BME280;21655;46.056;13.616;2022-07-23T09:27:49;100249.69;;;42.52;18.66
35551;BME280;21655;46.056;13.616;2022-07-23T09:30:15;100252.38;;;42.13;19.81
35551;BME280;21655;46.056;13.616;2022-07-23T09:32:41;100245.47;;;40.70;20.55
35551;BME280;21655;46.056;13.616;2022-07-23T09:35:07;100242.06;;;38.64;22.73
35551;BME280;21655;46.056;13.616;2022-07-23T09:37:33;100240.50;;;38.15;23.27
35551;BME280;21655;46.056;13.616;2022-07-23T09:40:09;100234.81;;;38.85;22.82
35551;BME280;21655;46.056;13.616;2022-07-23T09:42:37;100234.63;;;39.98;22.02
35551;BME280;21655;46.056;13.616;2022-07-23T09:45:03;100230.31;;;40.61;21.23
35551;BME280;21655;46.056;13.616;2022-07-23T09:47:31;100226.91;;;41.61;20.83
35551;BME280;21655;46.056;13.616;2022-07-23T09:52:31;100232.88;;;41.46;20.33
35551;BME280;21655;46.056;13.616;2022-07-23T09:54:59;100226.88;;;41.84;20.39
35551;BME280;21655;46.056;13.616;2022-07-23T09:57:26;100224.66;;;41.74;19.92
35551;BME280;21655;46.056;13.616;2022-07-23T09:59:52;100228.47;;;42.29;19.61
35551;BME280;21655;46.056;13.616;2022-07-23T10:02:17;100219.28;;;42.57;19.64
35551;BME280;21655;46.056;13.616;2022-07-23T10:04:43;100227.69;;;42.07;19.80
35551;BME280;21655;46.056;13.616;2022-07-23T10:07:09;100212.56;;;42.23;18.72
35551;BME280;21655;46.056;13.616;2022-07-23T10:09:38;100212.13;;;42.51;19.06
35551;BME280;21655;46.056;13.616;2022-07-23T10:12:09;100217.69;;;42.92;17.65
35551;BME280;21655;46.056;13.616;2022-07-23T10:14:47;100208.66;;;42.75;18.14
35551;BME280;21655;46.056;13.616;2022-07-23T10:17:13;100225.88;;;41.99;17.76
35551;BME280;21655;46.056;13.616;2022-07-23T10:19:39;100213.31;;;41.95;18.17
35551;BME280;21655;46.056;13.616;2022-07-23T10:22:08;100209.63;;;41.98;18.40
35551;BME280;21655;46.056;13.616;2022-07-23T10:24:50;100221.56;;;41.89;18.38
35551;BME280;21655;46.056;13.616;2022-07-23T10:30:04;100207.44;;;41.43;18.39
35551;BME280;21655;46.056;13.616;2022-07-23T10:35:21;100204.25;;;41.51;18.29
35551;BME280;21655;46.056;13.616;2022-07-23T10:41:10;100189.84;;;41.36;18.20
35551;BME280;21655;46.056;13.616;2022-07-23T10:43:35;100194.69;;;40.68;18.34
35551;BME280;21655;46.056;13.616;2022-07-23T10:46:23;100187.63;;;40.31;17.74
35551;BME280;21655;46.056;13.616;2022-07-23T10:49:21;100198.06;;;39.97;18.30
35551;BME280;21655;46.056;13.616;2022-07-23T10:57:11;100176.31;;;40.64;19.00
35551;BME280;21655;46.056;13.616;2022-07-23T11:02:51;100177.66;;;39.79;18.57
35551;BME280;21655;46.056;13.616;2022-07-23T11:05:20;100173.22;;;39.35;19.38
35551;BME280;21655;46.056;13.616;2022-07-23T11:10:38;100168.56;;;39.80;18.82
35551;BME280;21655;46.056;13.616;2022-07-23T11:16:08;100157.44;;;39.51;19.13
35551;BME280;21655;46.056;13.616;2022-07-23T11:26:43;100157.59;;;39.74;17.76
35551;BME280;21655;46.056;13.616;2022-07-23T11:34:48;100148.19;;;39.30;16.08
35551;BME280;21655;46.056;13.616;2022-07-23T11:37:34;100149.88;;;39.97;17.05
35551;BME280;21655;46.056;13.616;2022-07-23T11:40:00;100144.09;;;40.34;17.21
35551;BME280;21655;46.056;13.616;2022-07-23T11:42:26;100133.00;;;40.40;17.31
35551;BME280;21655;46.056;13.616;2022-07-23T11:44:52;100144.50;;;39.98;17.66
35551;BME280;21655;46.056;13.616;2022-07-23T11:47:23;100138.03;;;39.71;16.35
35551;BME280;21655;46.056;13.616;2022-07-23T11:50:00;100136.66;;;39.49;17.52
35551;BME280;21655;46.056;13.616;2022-07-23T11:52:27;100129.47;;;39.28;19.22
35551;BME280;21655;46.056;13.616;2022-07-23T11:55:02;100125.00;;;39.99;19.35
35551;BME280;21655;46.056;13.616;2022-07-23T11:57:30;100125.81;;;40.75;18.09
35551;BME280;21655;46.056;13.616;2022-07-23T11:59:58;100120.22;;;40.06;19.32
35551;BME280;21655;46.056;13.616;2022-07-23T12:02:24;100125.88;;;39.65;20.63
35551;BME280;21655;46.056;13.616;2022-07-23T12:04:51;100117.41;;;39.60;21.04
35551;BME280;21655;46.056;13.616;2022-07-23T12:07:38;100124.38;;;39.71;20.93
35551;BME280;21655;46.056;13.616;2022-07-23T12:10:18;100110.34;;;39.77;21.72
35551;BME280;21655;46.056;13.616;2022-07-23T12:13:09;100114.47;;;39.41;22.09
35551;BME280;21655;46.056;13.616;2022-07-23T12:15:42;100108.75;;;39.79;21.63
35551;BME280;21655;46.056;13.616;2022-07-23T12:18:14;100119.63;;;40.01;21.49
35551;BME280;21655;46.056;13.616;2022-07-23T12:20:42;100115.78;;;40.12;21.16
35551;BME280;21655;46.056;13.616;2022-07-23T12:23:09;100104.53;;;40.30;21.10
35551;BME280;21655;46.056;13.616;2022-07-23T12:25:38;100110.91;;;40.01;21.38
35551;BME280;21655;46.056;13.616;2022-07-23T12:28:11;100115.44;;;39.80;21.17
35551;BME280;21655;46.056;13.616;2022-07-23T12:33:03;100105.28;;;38.93;20.75
35551;BME280;21655;46.056;13.616;2022-07-23T12:35:33;100104.16;;;39.13;20.56
35551;BME280;21655;46.056;13.616;2022-07-23T12:38:02;100093.41;;;39.29;20.64
35551;BME280;21655;46.056;13.616;2022-07-23T12:40:34;100103.44;;;39.31;20.08
35551;BME280;21655;46.056;13.616;2022-07-23T12:43:01;100102.31;;;39.36;20.30
35551;BME280;21655;46.056;13.616;2022-07-23T12:45:28;100092.81;;;39.54;19.99
35551;BME280;21655;46.056;13.616;2022-07-23T12:48:00;100096.75;;;39.46;20.25
35551;BME280;21655;46.056;13.616;2022-07-23T12:53:12;100093.19;;;39.37;18.61
35551;BME280;21655;46.056;13.616;2022-07-23T12:55:39;100083.00;;;39.28;17.90
35551;BME280;21655;46.056;13.616;2022-07-23T12:58:15;100078.44;;;39.61;18.04
35551;BME280;21655;46.056;13.616;2022-07-23T13:05:56;100079.09;;;39.20;18.21
35551;BME280;21655;46.056;13.616;2022-07-23T13:08:23;100091.72;;;39.28;16.18
35551;BME280;21655;46.056;13.616;2022-07-23T13:10:49;100074.66;;;39.42;16.01
35551;BME280;21655;46.056;13.616;2022-07-23T13:13:19;100083.69;;;39.21;15.08
35551;BME280;21655;46.056;13.616;2022-07-23T13:15:45;100083.31;;;39.23;16.80
35551;BME280;21655;46.056;13.616;2022-07-23T13:18:10;100077.00;;;39.36;17.35
35551;BME280;21655;46.056;13.616;2022-07-23T13:20:36;100071.47;;;39.47;17.56
35551;BME280;21655;46.056;13.616;2022-07-23T13:23:04;100069.16;;;39.71;17.60
35551;BME280;21655;46.056;13.616;2022-07-23T13:25:30;100067.47;;;39.70;17.40
35551;BME280;21655;46.056;13.616;2022-07-23T13:27:55;100067.03;;;39.53;17.59
35551;BME280;21655;46.056;13.616;2022-07-23T13:30:21;100075.81;;;39.22;18.14
35551;BME280;21655;46.056;13.616;2022-07-23T13:32:47;100077.66;;;38.68;17.12
35551;BME280;21655;46.056;13.616;2022-07-23T13:35:13;100072.16;;;39.09;16.80